Time;durP1;ratioP1;P1;durP2;ratioP2;P2;SDS_P1;SDS_P2;PMS_P1;PMS_P2;Temp;Humidity;BMP_temperature;BMP_pressure;BME280_temperature;BME280_humidity;BME280_pressure;Samples;Min_cycle;Max_cycle;Signal;HPM_P1;HPM_P2
2022/09/17 00:02:24;;;;;;;1.77;0.70;;;13.40;99.10;;;;;;5047115;28;20664;-81
2022/09/17 00:04:50;;;;;;;2.03;0.70;;;13.40;99.10;;;;;;5069156;28;20070;-81
2022/09/17 00:07:17;;;;;;;2.03;0.60;;;13.40;99.20;;;;;;5053781;28;20028;-80
2022/09/17 00:09:43;;;;;;;2.28;0.50;;;13.40;99.20;;;;;;5085330;27;20114;-82
2022/09/17 00:12:09;;;;;;;1.10;0.50;;;13.40;99.20;;;;;;5068955;28;20059;-81
2022/09/17 00:14:35;;;;;;;1.58;0.60;;;13.40;99.20;;;;;;5068403;28;20468;-81
2022/09/17 00:17:00;;;;;;;1.90;0.57;;;13.40;99.20;;;;;;5067661;28;20016;-81
2022/09/17 00:19:26;;;;;;;0.97;0.60;;;13.40;99.20;;;;;;5056385;28;20028;-80
2022/09/17 00:21:51;;;;;;;2.23;0.60;;;13.40;99.20;;;;;;5048561;28;24289;-80
2022/09/17 00:24:19;;;;;;;1.88;0.50;;;13.40;99.20;;;;;;5086605;28;20020;-81
2022/09/17 00:26:45;;;;;;;0.65;0.50;;;13.40;99.20;;;;;;5058328;28;20054;-81
2022/09/17 00:29:11;;;;;;;1.30;0.57;;;13.40;99.30;;;;;;5066962;28;20247;-81
2022/09/17 00:31:37;;;;;;;2.88;0.52;;;13.40;99.40;;;;;;5064295;28;20024;-82
2022/09/17 00:34:05;;;;;;;2.47;0.50;;;13.40;99.50;;;;;;5062953;28;20241;-82
2022/09/17 00:36:33;;;;;;;2.25;0.60;;;13.40;99.50;;;;;;5044944;28;20029;-82
2022/09/17 00:38:59;;;;;;;1.55;0.70;;;13.40;99.50;;;;;;5051440;28;20535;-81
2022/09/17 00:41:28;;;;;;;1.47;0.60;;;13.40;99.60;;;;;;5060210;28;20056;-81
2022/09/17 00:44:00;;;;;;;1.58;0.60;;;13.50;99.70;;;;;;5065535;28;20030;-82
2022/09/17 00:46:29;;;;;;;3.42;0.70;;;13.40;99.60;;;;;;5066895;28;20040;-82
2022/09/17 00:48:57;;;;;;;2.63;0.70;;;13.50;99.70;;;;;;5062370;28;20135;-81
2022/09/17 00:51:32;;;;;;;1.35;0.60;;;13.50;99.70;;;;;;5072639;28;20327;-81
2022/09/17 00:54:00;;;;;;;3.00;0.90;;;13.50;99.70;;;;;;5049622;28;20124;-81
2022/09/17 00:56:30;;;;;;;1.33;0.50;;;13.50;99.70;;;;;;5053935;28;20038;-81
2022/09/17 00:58:57;;;;;;;2.55;0.60;;;13.50;99.80;;;;;;5062343;28;20053;-81
2022/09/17 01:01:23;;;;;;;1.83;0.60;;;13.50;99.80;;;;;;5067707;28;20275;-82
2022/09/17 01:03:48;;;;;;;1.85;0.75;;;13.50;99.90;;;;;;5049827;28;20256;-81
2022/09/17 01:06:33;;;;;;;2.93;0.70;;;13.50;99.90;;;;;;5076020;28;20024;-82
2022/09/17 01:09:07;;;;;;;2.17;0.60;;;13.50;99.80;;;;;;5086254;28;20050;-81
2022/09/17 01:12:04;;;;;;;1.92;0.60;;;13.60;99.90;;;;;;5053142;28;20028;-82
2022/09/17 01:15:15;;;;;;;2.30;0.60;;;13.60;99.90;;;;;;5080537;28;20024;-82
2022/09/17 01:18:20;;;;;;;2.50;0.60;;;13.50;99.90;;;;;;5010564;28;20433;-80
2022/09/17 01:21:01;;;;;;;1.38;0.43;;;13.60;99.80;;;;;;5061995;28;20012;-80
2022/09/17 01:23:45;;;;;;;2.35;0.60;;;13.60;99.80;;;;;;5085842;28;20058;-81
2022/09/17 01:26:29;;;;;;;1.85;0.50;;;13.50;99.60;;;;;;5063102;28;20240;-81
2022/09/17 01:29:36;;;;;;;1.08;0.50;;;13.50;99.70;;;;;;5061889;28;20233;-81
2022/09/17 01:32:07;;;;;;;1.07;0.63;;;13.50;99.70;;;;;;5066740;28;20202;-81
2022/09/17 01:34:40;;;;;;;1.63;0.50;;;13.50;99.90;;;;;;5060108;28;20042;-81
2022/09/17 01:37:45;;;;;;;2.35;0.90;;;13.40;99.90;;;;;;5071620;28;20602;-81
2022/09/17 01:40:37;;;;;;;1.67;0.40;;;13.40;99.80;;;;;;5021580;28;20029;-81
2022/09/17 01:43:32;;;;;;;1.73;0.70;;;13.40;99.90;;;;;;5053371;28;20133;-81
2022/09/17 01:46:14;;;;;;;2.23;0.60;;;13.50;99.90;;;;;;5041392;28;20074;-80
2022/09/17 01:48:44;;;;;;;1.02;0.43;;;13.40;99.90;;;;;;5079402;28;20043;-81
2022/09/17 01:51:17;;;;;;;2.75;0.43;;;13.40;99.90;;;;;;5052728;28;20421;-80
2022/09/17 01:53:56;;;;;;;1.50;0.50;;;13.40;99.90;;;;;;5067889;28;20028;-81
2022/09/17 01:56:26;;;;;;;2.70;0.60;;;13.40;99.90;;;;;;5042312;28;20265;-80
2022/09/17 01:59:06;;;;;;;1.50;0.60;;;13.50;99.90;;;;;;5062678;28;20527;-81
2022/09/17 02:01:34;;;;;;;1.58;0.47;;;13.40;99.90;;;;;;5066614;28;20032;-81
2022/09/17 02:04:16;;;;;;;1.80;0.50;;;13.40;99.90;;;;;;5045617;28;20112;-81
2022/09/17 02:06:46;;;;;;;3.80;0.57;;;13.40;99.90;;;;;;5067308;28;20436;-81
2022/09/17 02:09:18;;;;;;;2.95;0.50;;;13.40;99.90;;;;;;5085212;28;20039;-81
2022/09/17 02:11:50;;;;;;;0.90;0.50;;;13.40;99.90;;;;;;5070102;28;20024;-81
2022/09/17 02:14:25;;;;;;;0.93;0.50;;;13.50;99.90;;;;;;5053975;28;20024;-81
2022/09/17 02:16:58;;;;;;;1.40;0.50;;;13.50;99.90;;;;;;5049286;28;20024;-80
2022/09/17 02:19:28;;;;;;;2.00;0.57;;;13.50;99.90;;;;;;5056702;28;20435;-80
2022/09/17 02:22:01;;;;;;;3.40;0.85;;;13.50;99.90;;;;;;5053707;28;20648;-82
2022/09/17 02:24:43;;;;;;;1.63;0.60;;;13.50;99.90;;;;;;5079447;28;20485;-81
2022/09/17 02:27:50;;;;;;;2.40;0.60;;;13.50;99.90;;;;;;5067190;28;20020;-81
2022/09/17 02:30:16;;;;;;;0.93;0.47;;;13.60;99.90;;;;;;5069326;28;20051;-82
2022/09/17 02:32:42;;;;;;;1.67;0.60;;;13.50;99.90;;;;;;5069834;28;20391;-81
2022/09/17 02:35:09;;;;;;;1.60;0.50;;;13.50;99.90;;;;;;5081453;28;20024;-81
2022/09/17 02:37:35;;;;;;;1.75;0.60;;;13.60;99.90;;;;;;5053261;28;20030;-81
2022/09/17 02:40:02;;;;;;;3.03;0.70;;;13.60;99.90;;;;;;5072268;28;20180;-82
2022/09/17 02:43:12;;;;;;;1.47;0.47;;;13.60;99.90;;;;;;5071995;28;20373;-82
2022/09/17 02:45:55;;;;;;;1.88;0.70;;;13.60;99.90;;;;;;5055580;28;20067;-81
2022/09/17 02:48:30;;;;;;;1.50;0.60;;;13.60;99.90;;;;;;5054187;28;20036;-81
2022/09/17 02:51:23;;;;;;;1.75;0.60;;;13.60;99.90;;;;;;5057183;28;20282;-81
2022/09/17 02:54:17;;;;;;;1.67;0.50;;;13.60;99.90;;;;;;5057226;28;20093;-82
2022/09/17 02:56:55;;;;;;;1.50;0.50;;;13.50;99.90;;;;;;5079549;28;20031;-82
2022/09/17 02:59:41;;;;;;;1.38;0.52;;;13.50;99.60;;;;;;5066276;28;20050;-82
2022/09/17 03:02:13;;;;;;;1.30;0.60;;;13.40;99.40;;;;;;5044990;28;20102;-81
2022/09/17 03:04:39;;;;;;;1.80;0.50;;;13.40;99.30;;;;;;5075993;28;20089;-81
2022/09/17 03:07:07;;;;;;;1.97;0.50;;;13.40;99.20;;;;;;5046324;28;20028;-81
2022/09/17 03:09:34;;;;;;;1.00;0.40;;;13.30;99.20;;;;;;5076097;28;20801;-81
2022/09/17 03:12:01;;;;;;;1.05;0.60;;;13.20;99.30;;;;;;5065726;28;20030;-82
2022/09/17 03:14:26;;;;;;;1.02;0.50;;;13.20;99.50;;;;;;5064686;28;20480;-82
2022/09/17 03:16:52;;;;;;;1.77;0.60;;;13.20;99.80;;;;;;5061246;28;20031;-82
2022/09/17 03:19:17;;;;;;;1.92;0.60;;;13.20;99.90;;;;;;5064154;28;20019;-82
2022/09/17 03:21:43;;;;;;;1.83;0.80;;;13.10;99.90;;;;;;5067337;28;20075;-81
2022/09/17 03:24:10;;;;;;;1.40;0.50;;;13.20;99.80;;;;;;5074561;28;20028;-82
2022/09/17 03:26:36;;;;;;;1.73;0.53;;;13.10;99.60;;;;;;5048060;28;20024;-82
2022/09/17 03:29:02;;;;;;;0.90;0.60;;;13.10;99.50;;;;;;5064817;28;20532;-81
2022/09/17 03:31:28;;;;;;;3.80;0.70;;;13.10;99.40;;;;;;5057837;28;20255;-81
2022/09/17 03:33:53;;;;;;;1.90;0.47;;;13.00;99.30;;;;;;5048598;28;20067;-81
2022/09/17 03:36:19;;;;;;;1.55;0.60;;;13.00;99.40;;;;;;5039859;28;20031;-82
2022/09/17 03:38:45;;;;;;;1.23;0.50;;;13.00;99.40;;;;;;5067744;28;20099;-82
2022/09/17 03:41:10;;;;;;;2.97;0.50;;;12.90;99.30;;;;;;5070919;28;20052;-82
2022/09/17 03:43:38;;;;;;;2.30;0.80;;;12.90;99.30;;;;;;5059569;28;20063;-81
2022/09/17 03:46:04;;;;;;;1.35;0.50;;;12.80;99.20;;;;;;5052032;28;20044;-81
2022/09/17 03:48:31;;;;;;;2.83;0.50;;;12.80;99.20;;;;;;5043975;28;20149;-81
2022/09/17 03:50:56;;;;;;;1.63;0.40;;;12.80;99.30;;;;;;5057113;28;20028;-82
2022/09/17 03:53:22;;;;;;;2.17;0.40;;;12.80;99.40;;;;;;5045046;28;20028;-82
2022/09/17 03:55:48;;;;;;;2.38;0.60;;;12.80;99.50;;;;;;5061422;28;20023;-81
2022/09/17 03:58:14;;;;;;;2.40;0.60;;;12.80;99.40;;;;;;5059855;28;20500;-82
2022/09/17 04:00:39;;;;;;;2.10;0.65;;;12.70;99.40;;;;;;5049489;28;20224;-82
2022/09/17 04:03:06;;;;;;;3.33;0.80;;;12.70;99.40;;;;;;5065930;28;20051;-82
2022/09/17 04:05:32;;;;;;;1.90;0.40;;;12.70;99.30;;;;;;5055214;28;20501;-82
2022/09/17 04:07:58;;;;;;;2.40;0.60;;;12.70;99.30;;;;;;5051064;28;20036;-82
2022/09/17 04:10:23;;;;;;;3.08;0.70;;;12.60;99.30;;;;;;5051741;28;20020;-81
2022/09/17 04:12:49;;;;;;;0.90;0.50;;;12.60;99.30;;;;;;5069438;28;20032;-82
2022/09/17 04:15:14;;;;;;;1.42;0.55;;;12.60;99.30;;;;;;5074166;28;20016;-81
2022/09/17 04:17:40;;;;;;;0.93;0.47;;;12.50;99.30;;;;;;5052277;28;20039;-81
2022/09/17 04:20:06;;;;;;;1.60;0.60;;;12.60;99.30;;;;;;5082633;28;20249;-81
2022/09/17 04:22:32;;;;;;;0.77;0.40;;;12.50;99.40;;;;;;5057755;28;20346;-81
2022/09/17 04:24:57;;;;;;;3.20;0.60;;;12.50;99.40;;;;;;5059285;28;20048;-81
2022/09/17 04:27:23;;;;;;;1.73;0.47;;;12.50;99.50;;;;;;5063222;28;20024;-82
2022/09/17 04:29:49;;;;;;;4.05;0.70;;;12.50;99.80;;;;;;5060090;28;20086;-81
2022/09/17 04:32:14;;;;;;;1.70;0.53;;;12.50;99.90;;;;;;5053387;28;20039;-81
2022/09/17 04:34:40;;;;;;;3.40;0.80;;;12.50;99.90;;;;;;5057340;28;20152;-81
2022/09/17 04:37:06;;;;;;;3.47;0.80;;;12.50;99.90;;;;;;5072584;28;20033;-81
2022/09/17 04:39:31;;;;;;;2.72;0.60;;;12.50;99.90;;;;;;5047421;28;20291;-81
2022/09/17 04:41:57;;;;;;;3.07;0.70;;;12.60;99.90;;;;;;5052038;28;20016;-82
2022/09/17 04:44:22;;;;;;;2.67;0.70;;;12.60;99.90;;;;;;5072110;28;20118;-83
2022/09/17 04:46:48;;;;;;;2.97;0.77;;;12.60;99.90;;;;;;5074526;28;20039;-82
2022/09/17 04:49:14;;;;;;;2.77;0.90;;;12.60;99.90;;;;;;5068238;28;20487;-81
2022/09/17 04:51:39;;;;;;;3.38;0.80;;;12.70;99.90;;;;;;5068277;28;20231;-80
2022/09/17 04:54:05;;;;;;;2.30;0.50;;;12.70;99.90;;;;;;5074861;28;20039;-80
2022/09/17 04:56:31;;;;;;;2.72;0.80;;;12.70;99.90;;;;;;5068583;28;20392;-81
2022/09/17 04:58:57;;;;;;;1.10;0.53;;;12.70;99.90;;;;;;5068306;28;20393;-81
2022/09/17 05:01:22;;;;;;;1.65;0.63;;;12.70;99.90;;;;;;5056085;28;20125;-81
2022/09/17 05:03:48;;;;;;;5.77;0.70;;;12.70;99.90;;;;;;5041609;28;20035;-81
2022/09/17 05:06:14;;;;;;;1.75;0.60;;;12.70;99.90;;;;;;5051047;28;20028;-81
2022/09/17 05:08:40;;;;;;;3.60;0.80;;;12.70;99.90;;;;;;5042632;28;20311;-81
2022/09/17 05:11:05;;;;;;;3.70;0.88;;;12.70;99.90;;;;;;5065368;28;20071;-81
2022/09/17 05:13:31;;;;;;;2.40;0.80;;;12.70;99.90;;;;;;5067249;28;20020;-82
2022/09/17 05:15:57;;;;;;;4.60;0.73;;;12.70;99.90;;;;;;5079658;28;20039;-81
2022/09/17 05:18:23;;;;;;;1.37;0.70;;;12.70;99.90;;;;;;5048872;28;20548;-80
2022/09/17 05:20:48;;;;;;;1.55;0.60;;;12.70;99.90;;;;;;5063882;28;20547;-82
2022/09/17 05:23:14;;;;;;;2.60;0.80;;;12.70;99.90;;;;;;5036808;28;20017;-80
2022/09/17 05:25:40;;;;;;;2.08;0.60;;;12.70;99.90;;;;;;5069397;28;20738;-81
2022/09/17 05:28:06;;;;;;;1.60;0.53;;;12.70;99.90;;;;;;5044446;28;20024;-81
2022/09/17 05:30:32;;;;;;;3.33;0.60;;;12.70;99.90;;;;;;5058889;28;20028;-81
2022/09/17 05:33:03;;;;;;;3.08;0.80;;;12.80;99.90;;;;;;5072793;28;20107;-80
2022/09/17 05:35:29;;;;;;;1.65;0.80;;;12.80;99.90;;;;;;5043293;28;20171;-80
2022/09/17 05:38:03;;;;;;;2.17;0.63;;;12.80;99.90;;;;;;5076893;27;20088;-80
2022/09/17 05:40:30;;;;;;;1.70;0.60;;;12.80;99.90;;;;;;5060784;27;20111;-79
2022/09/17 05:43:05;;;;;;;2.00;0.68;;;12.80;99.90;;;;;;5070250;28;20544;-80
2022/09/17 05:45:35;;;;;;;1.70;0.60;;;12.90;99.90;;;;;;5068165;28;20016;-81
2022/09/17 05:48:02;;;;;;;2.35;0.60;;;12.90;99.90;;;;;;5072701;28;20039;-80
2022/09/17 05:50:28;;;;;;;2.33;0.70;;;12.90;99.90;;;;;;5048689;28;20075;-79
2022/09/17 05:52:54;;;;;;;1.60;0.60;;;12.90;99.90;;;;;;5054124;28;20078;-81
2022/09/17 05:55:21;;;;;;;4.53;0.70;;;12.90;99.90;;;;;;5051571;28;20451;-81
2022/09/17 05:57:50;;;;;;;2.95;0.57;;;13.00;99.90;;;;;;5071636;28;20024;-80
2022/09/17 06:00:16;;;;;;;0.97;0.47;;;13.00;99.90;;;;;;5056852;28;20353;-80
2022/09/17 06:02:42;;;;;;;1.90;0.60;;;13.00;99.90;;;;;;5064795;28;20095;-80
2022/09/17 06:05:08;;;;;;;2.58;0.75;;;13.00;99.90;;;;;;5055809;28;20470;-80
2022/09/17 06:07:35;;;;;;;3.25;0.60;;;13.00;99.90;;;;;;5057613;28;20232;-80
2022/09/17 06:10:02;;;;;;;2.87;0.67;;;13.10;99.90;;;;;;5058462;28;21235;-80
2022/09/17 06:12:27;;;;;;;2.33;0.60;;;13.10;99.90;;;;;;5047515;28;20123;-80
2022/09/17 06:14:53;;;;;;;2.47;0.70;;;13.10;99.90;;;;;;5061211;28;20226;-80
2022/09/17 06:17:19;;;;;;;2.00;0.70;;;13.10;99.90;;;;;;5069340;28;20034;-80
2022/09/17 06:19:44;;;;;;;1.67;0.70;;;13.10;99.90;;;;;;5074733;28;20028;-80
2022/09/17 06:22:10;;;;;;;1.77;0.60;;;13.20;99.90;;;;;;5050660;28;20308;-81
2022/09/17 06:24:35;;;;;;;2.53;0.60;;;13.20;99.90;;;;;;5033445;28;20028;-80
2022/09/17 06:27:01;;;;;;;2.57;0.70;;;13.20;99.90;;;;;;5045932;28;20343;-81
2022/09/17 06:29:26;;;;;;;2.43;0.70;;;13.20;99.90;;;;;;5039640;28;20274;-79
2022/09/17 06:31:52;;;;;;;1.80;0.70;;;13.30;99.90;;;;;;5048533;28;20132;-80
2022/09/17 06:34:18;;;;;;;2.67;0.88;;;13.20;99.90;;;;;;5066253;28;20374;-80
2022/09/17 06:36:44;;;;;;;2.25;0.60;;;13.30;99.90;;;;;;5055455;28;20036;-81
2022/09/17 06:39:10;;;;;;;1.88;0.63;;;13.30;99.90;;;;;;5048711;28;20549;-81
2022/09/17 06:41:37;;;;;;;1.70;0.60;;;13.30;99.90;;;;;;5062877;28;20111;-80
2022/09/17 06:44:03;;;;;;;3.45;0.70;;;13.30;99.90;;;;;;5056683;28;22626;-80
2022/09/17 06:46:29;;;;;;;1.73;0.70;;;13.40;99.90;;;;;;5072761;28;20075;-81
2022/09/17 06:48:55;;;;;;;3.00;0.70;;;13.40;99.90;;;;;;5037711;28;20027;-79
2022/09/17 06:51:21;;;;;;;3.17;0.70;;;13.50;99.90;;;;;;5074703;28;20024;-81
2022/09/17 06:53:47;;;;;;;3.38;0.80;;;13.50;99.90;;;;;;5051954;28;20085;-81
2022/09/17 06:56:14;;;;;;;3.67;0.70;;;13.60;99.90;;;;;;5054862;28;20017;-81
2022/09/17 06:58:43;;;;;;;5.27;0.70;;;13.60;99.90;;;;;;5058077;28;20073;-80
2022/09/17 07:01:10;;;;;;;2.92;0.80;;;13.70;99.90;;;;;;5067279;27;20025;-80
2022/09/17 07:03:36;;;;;;;2.10;0.80;;;13.80;99.90;;;;;;5069193;28;20028;-80
2022/09/17 07:06:02;;;;;;;2.78;0.80;;;13.90;99.90;;;;;;5067169;28;20389;-81
2022/09/17 07:08:30;;;;;;;2.37;0.70;;;14.00;99.90;;;;;;5046634;28;20122;-80
2022/09/17 07:10:57;;;;;;;3.13;0.85;;;14.10;99.90;;;;;;5040516;28;20409;-81
2022/09/17 07:13:23;;;;;;;2.78;0.70;;;14.30;99.90;;;;;;5056046;28;20897;-80
2022/09/17 07:16:00;;;;;;;2.72;0.80;;;14.40;99.90;;;;;;5053957;28;20039;-81
2022/09/17 07:18:26;;;;;;;2.60;1.00;;;14.50;99.90;;;;;;5058292;28;20089;-81
2022/09/17 07:20:57;;;;;;;3.00;0.80;;;14.50;99.90;;;;;;5057730;28;20035;-82
2022/09/17 07:23:24;;;;;;;2.75;0.70;;;14.60;99.90;;;;;;5053750;28;20032;-80
2022/09/17 07:26:01;;;;;;;2.67;0.82;;;14.60;99.90;;;;;;5066505;28;20410;-81
2022/09/17 07:28:28;;;;;;;3.60;0.75;;;14.60;99.90;;;;;;5045355;28;22675;-82
2022/09/17 07:30:54;;;;;;;2.65;0.80;;;14.60;99.90;;;;;;5065208;28;20158;-81
2022/09/17 07:33:23;;;;;;;2.27;0.83;;;14.70;99.90;;;;;;5048710;28;20036;-81
2022/09/17 07:35:57;;;;;;;2.80;0.80;;;15.00;99.90;;;;;;5048890;28;20241;-80
2022/09/17 07:38:23;;;;;;;4.30;0.82;;;15.10;99.90;;;;;;5055655;28;20038;-80
2022/09/17 07:40:57;;;;;;;3.53;0.90;;;15.20;99.90;;;;;;5070636;28;20625;-80
2022/09/17 07:43:24;;;;;;;2.53;0.80;;;15.30;99.90;;;;;;5026329;28;20055;-80
2022/09/17 07:45:50;;;;;;;3.77;0.90;;;15.40;99.90;;;;;;5057820;28;20724;-80
2022/09/17 07:48:15;;;;;;;2.58;0.68;;;15.50;99.90;;;;;;5035715;28;20360;-81
2022/09/17 07:50:41;;;;;;;2.73;0.70;;;15.60;99.90;;;;;;5059057;28;20034;-80
2022/09/17 07:53:07;;;;;;;2.30;0.80;;;15.60;99.90;;;;;;5066274;28;20016;-80
2022/09/17 07:55:32;;;;;;;3.10;0.70;;;15.70;99.90;;;;;;5051016;28;20035;-81
2022/09/17 07:57:58;;;;;;;2.10;0.60;;;15.80;99.90;;;;;;5053482;28;20105;-79
2022/09/17 08:00:24;;;;;;;2.15;0.70;;;16.00;99.90;;;;;;5056205;28;20420;-81
2022/09/17 08:02:56;;;;;;;2.40;0.63;;;16.40;99.90;;;;;;5039951;28;20140;-81
2022/09/17 08:05:23;;;;;;;2.20;0.80;;;16.90;99.90;;;;;;5051984;28;20306;-80
2022/09/17 08:07:54;;;;;;;2.45;0.70;;;17.40;99.90;;;;;;5073374;28;20028;-80
2022/09/17 08:10:21;;;;;;;3.03;0.70;;;18.00;99.90;;;;;;5061234;28;20028;-80
2022/09/17 08:12:48;;;;;;;2.30;0.90;;;18.50;99.90;;;;;;5053133;28;20265;-81
2022/09/17 08:15:15;;;;;;;2.38;0.70;;;19.00;99.90;;;;;;5064662;28;20024;-80
2022/09/17 08:17:45;;;;;;;2.97;0.80;;;19.40;99.90;;;;;;5059439;28;20180;-81
2022/09/17 08:20:12;;;;;;;2.97;0.70;;;19.70;99.90;;;;;;5054372;28;20028;-80
2022/09/17 08:22:39;;;;;;;2.13;0.80;;;19.70;99.90;;;;;;5064729;28;20286;-81
2022/09/17 08:25:06;;;;;;;2.25;0.82;;;19.70;99.90;;;;;;5078410;28;21225;-80
2022/09/17 08:27:32;;;;;;;3.10;0.70;;;19.70;99.90;;;;;;5043371;28;20063;-81
2022/09/17 08:29:58;;;;;;;2.40;0.70;;;19.60;99.90;;;;;;5055242;27;20036;-80
2022/09/17 08:32:24;;;;;;;2.72;0.80;;;19.80;99.90;;;;;;5059017;28;20247;-81
2022/09/17 08:34:52;;;;;;;2.10;0.90;;;20.00;99.90;;;;;;5060876;28;20481;-80
2022/09/17 08:37:19;;;;;;;2.20;0.70;;;20.30;99.90;;;;;;5055528;28;20452;-80
2022/09/17 08:39:44;;;;;;;2.25;0.60;;;20.50;99.90;;;;;;5058676;28;20024;-79
2022/09/17 08:42:39;;;;;;;2.40;0.70;;;20.90;99.90;;;;;;5056655;28;20391;-80
2022/09/17 08:45:13;;;;;;;1.87;0.70;;;21.40;99.90;;;;;;5056282;28;20016;-81
2022/09/17 08:47:43;;;;;;;2.13;0.80;;;21.80;99.90;;;;;;5044429;28;20036;-80
2022/09/17 08:50:18;;;;;;;3.17;0.60;;;22.20;99.90;;;;;;5060243;28;20055;-81
2022/09/17 08:53:05;;;;;;;1.50;0.70;;;22.60;99.90;;;;;;5048584;28;20027;-79
2022/09/17 08:55:52;;;;;;;2.72;0.75;;;23.00;98.10;;;;;;5047677;28;20047;-80
2022/09/17 08:58:35;;;;;;;3.83;0.70;;;23.20;96.70;;;;;;5035235;28;20024;-80
2022/09/17 09:01:27;;;;;;;2.15;0.75;;;23.20;94.50;;;;;;5067540;28;20319;-80
2022/09/17 09:03:55;;;;;;;1.92;0.63;;;23.00;92.60;;;;;;5049822;28;20108;-81
2022/09/17 09:06:26;;;;;;;1.50;0.70;;;22.60;93.10;;;;;;5060929;28;20040;-81
2022/09/17 09:09:04;;;;;;;1.92;0.70;;;22.20;92.00;;;;;;5061261;28;20404;-81
2022/09/17 09:11:31;;;;;;;3.73;0.70;;;21.70;91.10;;;;;;5064965;28;20015;-81
2022/09/17 09:14:17;;;;;;;1.70;0.60;;;21.30;92.50;;;;;;5053297;28;20673;-81
2022/09/17 09:16:46;;;;;;;1.67;0.60;;;20.80;92.30;;;;;;5068244;28;20040;-82
2022/09/17 09:19:26;;;;;;;2.17;0.50;;;20.40;93.70;;;;;;5042275;28;20116;-82
2022/09/17 09:22:23;;;;;;;3.63;0.70;;;20.00;93.40;;;;;;5060015;28;20024;-82
2022/09/17 09:25:10;;;;;;;3.57;0.60;;;19.70;93.50;;;;;;5068723;28;20032;-81
2022/09/17 09:27:48;;;;;;;2.40;0.52;;;19.40;93.70;;;;;;5030951;28;20345;-80
2022/09/17 09:30:16;;;;;;;2.28;0.70;;;19.10;94.90;;;;;;5039739;28;20013;-80
2022/09/17 09:33:14;;;;;;;1.77;0.50;;;18.80;95.90;;;;;;5069409;28;20641;-80
2022/09/17 09:35:43;;;;;;;1.60;0.60;;;18.60;95.00;;;;;;5063895;27;20068;-80
2022/09/17 09:38:31;;;;;;;2.67;0.70;;;18.50;97.40;;;;;;5053201;28;20045;-80
2022/09/17 09:41:10;;;;;;;2.10;0.75;;;18.30;97.00;;;;;;5052846;28;20439;-81
2022/09/17 09:43:58;;;;;;;1.25;0.47;;;18.30;98.10;;;;;;5048972;28;20429;-80
2022/09/17 09:46:51;;;;;;;2.25;0.68;;;18.20;97.70;;;;;;5055363;28;20093;-80
2022/09/17 09:49:36;;;;;;;1.58;0.60;;;18.20;98.30;;;;;;5068866;28;20039;-80
2022/09/17 09:52:31;;;;;;;2.13;0.40;;;18.10;97.80;;;;;;5067271;28;20049;-81
2022/09/17 09:55:33;;;;;;;3.00;0.50;;;18.10;98.10;;;;;;5067986;28;20418;-81
2022/09/17 09:58:27;;;;;;;0.80;0.35;;;18.00;97.70;;;;;;5076261;28;20024;-81
2022/09/17 10:00:53;;;;;;;2.25;0.47;;;17.90;97.00;;;;;;5067001;28;20100;-80
2022/09/17 10:03:30;;;;;;;1.40;0.57;;;17.80;97.60;;;;;;5041372;28;20414;-81
2022/09/17 10:06:08;;;;;;;2.28;0.60;;;17.70;97.40;;;;;;5052973;28;20416;-80
2022/09/17 10:09:01;;;;;;;1.58;0.60;;;17.60;96.60;;;;;;5068210;28;20551;-81
2022/09/17 10:11:32;;;;;;;1.85;0.50;;;17.50;96.70;;;;;;5071224;28;20591;-80
2022/09/17 10:14:24;;;;;;;0.40;0.40;;;17.30;96.70;;;;;;5058281;28;20035;-80
2022/09/17 10:17:13;;;;;;;1.85;0.45;;;17.20;95.80;;;;;;5065425;28;20062;-81
2022/09/17 10:19:39;;;;;;;1.63;0.47;;;17.10;96.40;;;;;;5051428;28;20021;-81
2022/09/17 10:22:28;;;;;;;1.48;0.40;;;16.90;96.50;;;;;;5065524;28;20035;-80
2022/09/17 10:24:56;;;;;;;0.88;0.50;;;16.70;96.00;;;;;;5052550;28;20217;-81
2022/09/17 10:27:23;;;;;;;1.80;0.47;;;16.60;97.10;;;;;;5069777;28;20449;-80
2022/09/17 10:30:07;;;;;;;0.93;0.50;;;16.60;97.50;;;;;;5053042;28;20063;-82
2022/09/17 10:32:33;;;;;;;1.45;0.40;;;16.50;97.40;;;;;;5075310;28;20029;-81
2022/09/17 10:35:03;;;;;;;0.47;0.30;;;16.50;99.90;;;;;;5041671;28;20486;-82
2022/09/17 10:37:50;;;;;;;1.05;0.40;;;16.60;99.90;;;;;;5053144;28;20025;-81
2022/09/17 10:40:19;;;;;;;0.98;0.47;;;17.00;99.90;;;;;;5057347;28;20046;-81
2022/09/17 10:42:50;;;;;;;0.60;0.40;;;17.30;99.90;;;;;;5069969;28;20493;-81
2022/09/17 10:45:27;;;;;;;1.50;0.50;;;17.60;99.90;;;;;;5038260;28;20021;-81
2022/09/17 10:47:55;;;;;;;1.10;0.50;;;17.90;99.90;;;;;;5064106;28;20044;-82
2022/09/17 10:50:29;;;;;;;1.55;0.50;;;18.10;99.90;;;;;;5054405;28;20066;-82
2022/09/17 10:52:58;;;;;;;2.17;0.50;;;18.20;99.90;;;;;;5044892;28;20032;-82
2022/09/17 10:55:27;;;;;;;1.00;0.50;;;18.20;99.90;;;;;;5040419;28;20036;-81
2022/09/17 10:58:06;;;;;;;0.50;0.50;;;18.20;99.70;;;;;;5063351;28;20253;-80
2022/09/17 11:00:38;;;;;;;0.50;0.43;;;18.20;97.90;;;;;;5057105;28;20032;-82
2022/09/17 11:03:25;;;;;;;1.05;0.40;;;18.10;97.80;;;;;;5055954;28;20920;-81
2022/09/17 11:06:18;;;;;;;1.50;0.50;;;18.00;97.30;;;;;;5046908;28;20440;-81
2022/09/17 11:09:23;;;;;;;1.35;0.50;;;17.90;98.30;;;;;;5061194;28;20020;-82
2022/09/17 11:12:10;;;;;;;0.75;0.50;;;17.90;99.60;;;;;;5046976;28;20021;-81
2022/09/17 11:14:49;;;;;;;0.67;0.50;;;18.00;99.90;;;;;;5066140;28;20530;-82
2022/09/17 11:17:54;;;;;;;1.92;0.70;;;18.20;99.90;;;;;;5040442;28;20043;-84
2022/09/17 11:20:40;;;;;;;1.52;0.55;;;18.30;99.90;;;;;;5022354;28;20737;-83
2022/09/17 11:23:37;;;;;;;1.17;0.50;;;18.40;99.90;;;;;;5059773;28;20017;-82
2022/09/17 11:26:07;;;;;;;1.83;0.80;;;18.50;99.90;;;;;;5051105;28;20109;-81
2022/09/17 11:28:57;;;;;;;2.70;0.50;;;18.50;99.90;;;;;;5064180;28;20524;-83
2022/09/17 11:31:28;;;;;;;1.50;0.60;;;18.50;99.00;;;;;;5052991;28;20668;-81
2022/09/17 11:34:20;;;;;;;0.73;0.50;;;18.50;99.90;;;;;;5059622;28;20088;-81
2022/09/17 11:37:03;;;;;;;1.75;0.50;;;18.60;99.90;;;;;;5056032;28;20051;-83
2022/09/17 11:39:36;;;;;;;0.80;0.50;;;18.60;99.60;;;;;;5042321;28;20016;-83
2022/09/17 11:42:06;;;;;;;1.60;0.50;;;18.70;99.90;;;;;;5038560;28;20030;-83
2022/09/17 11:44:38;;;;;;;1.17;0.40;;;18.80;99.90;;;;;;5067901;28;20127;-82
2022/09/17 11:47:30;;;;;;;0.88;0.40;;;19.10;99.90;;;;;;5024366;28;20131;-82
2022/09/17 11:50:18;;;;;;;0.88;0.50;;;19.40;99.90;;;;;;5029651;28;20106;-80
2022/09/17 11:53:18;;;;;;;1.20;0.63;;;19.90;99.90;;;;;;5042814;28;20123;-80
2022/09/17 11:55:52;;;;;;;1.03;0.40;;;20.10;99.90;;;;;;5051602;28;20130;-81
2022/09/17 11:58:21;;;;;;;1.05;0.50;;;20.20;99.30;;;;;;5046310;28;20042;-80
2022/09/17 12:00:56;;;;;;;1.15;0.50;;;20.20;99.00;;;;;;5046424;28;20648;-81
2022/09/17 12:03:29;;;;;;;2.40;0.50;;;20.10;98.70;;;;;;5053410;28;20054;-81
2022/09/17 12:06:06;;;;;;;2.38;0.60;;;20.10;98.20;;;;;;5071375;28;20034;-81
2022/09/17 12:08:42;;;;;;;1.93;0.40;;;20.00;97.80;;;;;;5030718;28;20020;-80
2022/09/17 12:11:18;;;;;;;1.52;0.60;;;20.00;97.70;;;;;;5054630;28;20111;-80
2022/09/17 12:13:54;;;;;;;1.45;0.70;;;19.90;98.90;;;;;;5054257;28;20047;-81
2022/09/17 12:16:27;;;;;;;2.47;0.68;;;20.10;99.90;;;;;;5056279;28;20028;-80
2022/09/17 12:19:04;;;;;;;1.90;0.70;;;20.40;99.90;;;;;;5066145;27;20485;-80
2022/09/17 12:21:39;;;;;;;1.53;0.60;;;20.80;99.90;;;;;;5058972;28;20522;-81
2022/09/17 12:24:29;;;;;;;3.05;0.63;;;21.20;99.90;;;;;;5049400;28;20028;-80
2022/09/17 12:27:09;;;;;;;2.50;0.70;;;21.70;99.90;;;;;;5053468;28;20028;-80
2022/09/17 12:29:43;;;;;;;2.83;0.90;;;22.20;99.90;;;;;;5034749;28;20029;-79
2022/09/17 12:32:40;;;;;;;2.22;0.60;;;22.60;99.90;;;;;;5050307;28;20067;-80
2022/09/17 12:35:14;;;;;;;1.40;0.67;;;23.00;99.90;;;;;;5050647;28;20501;-80
2022/09/17 12:37:58;;;;;;;1.65;0.70;;;23.50;99.90;;;;;;5062997;28;20547;-80
2022/09/17 12:40:30;;;;;;;3.17;0.82;;;23.90;99.90;;;;;;5036475;28;20033;-79
2022/09/17 12:43:40;;;;;;;3.05;0.88;;;24.40;99.90;;;;;;5060097;28;20510;-79
2022/09/17 12:46:29;;;;;;;3.20;0.82;;;24.80;97.00;;;;;;5068088;28;20024;-80
2022/09/17 12:49:19;;;;;;;2.87;0.77;;;24.90;95.90;;;;;;5013098;28;20119;-79
2022/09/17 12:51:59;;;;;;;2.45;0.63;;;24.70;92.10;;;;;;5062939;28;20024;-80
2022/09/17 12:54:51;;;;;;;3.05;0.90;;;24.50;94.00;;;;;;5049911;28;20036;-79
2022/09/17 12:57:29;;;;;;;2.40;0.90;;;24.10;90.80;;;;;;5058894;28;20070;-80
2022/09/17 13:00:06;;;;;;;2.65;0.90;;;23.80;92.40;;;;;;5047160;28;20021;-79
2022/09/17 13:02:48;;;;;;;2.93;0.80;;;23.70;93.60;;;;;;5059661;28;20017;-78
2022/09/17 13:05:41;;;;;;;3.10;1.00;;;23.80;95.40;;;;;;5057299;28;20348;-79
2022/09/17 13:08:07;;;;;;;3.60;0.88;;;23.90;95.30;;;;;;5086609;27;20435;-81
2022/09/17 13:10:48;;;;;;;2.23;0.60;;;24.10;99.20;;;;;;5029866;28;20031;-80
2022/09/17 13:13:35;;;;;;;2.58;0.90;;;24.40;95.90;;;;;;5058005;28;20491;-80
2022/09/17 13:16:17;;;;;;;3.53;0.88;;;24.70;94.90;;;;;;5059819;28;20505;-80
2022/09/17 13:19:12;;;;;;;1.83;0.80;;;24.90;96.40;;;;;;5060171;27;20630;-80
2022/09/17 13:21:53;;;;;;;3.15;0.80;;;25.20;96.00;;;;;;5006238;28;20028;-80